createdAt,value
2023-04-27T00:01:12.530Z,6.95
2023-04-27T00:06:05.798Z,9.10
2023-04-27T00:08:32.197Z,6.15
2023-04-27T00:10:58.715Z,6.25
2023-04-27T00:13:25.466Z,7.38
2023-04-27T00:15:52.051Z,8.23
2023-04-27T00:18:18.876Z,7.93
2023-04-27T00:20:45.534Z,9.15
2023-04-27T00:23:12.102Z,10.80
2023-04-27T00:25:39.125Z,13.20
2023-04-27T00:28:06.962Z,9.13
2023-04-27T00:30:33.609Z,9.25
2023-04-27T00:33:01.117Z,7.72
2023-04-27T00:35:27.736Z,7.63
2023-04-27T00:37:54.974Z,7.80
2023-04-27T00:40:22.700Z,14.77
2023-04-27T00:42:49.018Z,11.15
2023-04-27T00:45:16.044Z,8.25
2023-04-27T00:47:44.542Z,9.57
2023-04-27T00:50:12.350Z,8.68
2023-04-27T00:52:39.573Z,9.25
2023-04-27T00:55:07.503Z,11.77
2023-04-27T00:57:34.241Z,8.13
2023-04-27T01:00:01.902Z,8.15
2023-04-27T01:02:36.437Z,11.57
2023-04-27T01:05:03.586Z,11.38
2023-04-27T01:07:30.031Z,10.30
2023-04-27T01:09:58.048Z,10.27
2023-04-27T01:12:24.799Z,7.05
2023-04-27T01:14:51.535Z,12.25
2023-04-27T01:17:19.459Z,9.77
2023-04-27T01:19:46.016Z,9.80
2023-04-27T01:22:14.348Z,7.60
2023-04-27T01:24:41.527Z,7.03
2023-04-27T01:27:08.056Z,8.32
2023-04-27T01:29:36.548Z,8.60
2023-04-27T01:32:03.210Z,10.75
2023-04-27T01:34:29.999Z,10.27
2023-04-27T01:36:56.329Z,8.95
2023-04-27T01:39:23.446Z,7.55
2023-04-27T01:41:49.877Z,7.60
2023-04-27T01:44:16.508Z,11.43
2023-04-27T01:46:43.061Z,11.00
2023-04-27T01:49:09.626Z,9.10
2023-04-27T01:51:36.182Z,10.07
2023-04-27T01:54:04.382Z,9.35
2023-04-27T01:56:30.955Z,10.40
2023-04-27T01:58:57.520Z,9.82
2023-04-27T02:01:24.726Z,6.18
2023-04-27T02:03:52.135Z,8.18
2023-04-27T02:06:19.270Z,14.82
2023-04-27T02:08:46.945Z,8.23
2023-04-27T02:11:13.293Z,9.90
2023-04-27T02:13:42.135Z,8.63
2023-04-27T02:16:08.962Z,12.15
2023-04-27T02:18:36.071Z,11.25
2023-04-27T02:21:07.840Z,9.38
2023-04-27T02:23:34.932Z,6.88
2023-04-27T02:26:01.482Z,8.00
2023-04-27T02:28:28.040Z,9.63
2023-04-27T02:30:54.880Z,9.65
2023-04-27T02:33:21.362Z,10.35
2023-04-27T02:35:47.723Z,8.60
2023-04-27T02:38:14.357Z,7.50
2023-04-27T02:40:42.549Z,8.80
2023-04-27T02:43:09.147Z,8.48
2023-04-27T02:45:38.671Z,5.32
2023-04-27T02:48:05.993Z,8.75
2023-04-27T02:50:34.893Z,7.30
2023-04-27T02:53:01.614Z,9.35
2023-04-27T02:55:28.957Z,8.82
2023-04-27T02:57:55.551Z,8.80
2023-04-27T03:00:22.220Z,12.93
2023-04-27T03:02:49.556Z,7.63
2023-04-27T03:05:16.082Z,7.78
2023-04-27T03:07:42.502Z,9.18
2023-04-27T03:10:09.264Z,10.68
2023-04-27T03:12:35.784Z,10.02
2023-04-27T03:15:02.670Z,8.18
2023-04-27T03:17:29.453Z,8.07
2023-04-27T03:19:56.222Z,7.03
2023-04-27T03:22:24.071Z,8.45
2023-04-27T03:24:50.471Z,10.70
2023-04-27T03:27:16.844Z,7.95
2023-04-27T03:29:43.399Z,8.73
2023-04-27T03:32:11.453Z,10.27
2023-04-27T03:34:37.937Z,6.60
2023-04-27T03:37:05.372Z,7.72
2023-04-27T03:39:32.373Z,12.10
2023-04-27T03:41:59.562Z,6.68
2023-04-27T03:44:26.191Z,7.30
2023-04-27T03:46:53.053Z,9.30
2023-04-27T03:49:19.850Z,7.90
2023-04-27T03:51:46.619Z,8.88
2023-04-27T03:54:15.044Z,8.70
2023-04-27T03:56:41.558Z,7.22
2023-04-27T03:59:08.267Z,11.27
2023-04-27T04:01:37.522Z,11.95
2023-04-27T04:04:04.432Z,8.98
2023-04-27T04:06:31.880Z,8.93
2023-04-27T04:08:58.430Z,8.93
2023-04-27T04:11:26.024Z,7.30
2023-04-27T04:13:56.216Z,8.88
2023-04-27T04:16:23.029Z,11.63
2023-04-27T04:18:53.029Z,10.98
2023-04-27T04:21:19.613Z,8.07
2023-04-27T04:23:46.003Z,10.68
2023-04-27T04:26:13.791Z,8.80
2023-04-27T04:28:40.701Z,8.18
2023-04-27T04:31:09.879Z,9.57
2023-04-27T04:33:36.772Z,8.02
2023-04-27T04:36:04.531Z,8.68
2023-04-27T04:38:33.032Z,6.78
2023-04-27T04:41:00.311Z,6.82
2023-04-27T04:43:27.050Z,10.60
2023-04-27T04:45:54.167Z,8.00
2023-04-27T04:48:22.181Z,8.90
2023-04-27T04:50:49.020Z,7.53
2023-04-27T04:53:15.586Z,7.28
2023-04-27T04:55:43.299Z,9.55
2023-04-27T04:58:10.079Z,10.38
2023-04-27T05:00:36.841Z,8.55
2023-04-27T05:03:03.520Z,7.63
2023-04-27T05:05:30.167Z,9.60
2023-04-27T05:07:56.690Z,9.10
2023-04-27T05:10:23.064Z,10.27
2023-04-27T05:12:49.427Z,10.45
2023-04-27T05:15:15.968Z,8.63
2023-04-27T05:17:42.738Z,8.60
2023-04-27T05:20:10.117Z,11.27
2023-04-27T05:22:36.670Z,14.02
2023-04-27T05:25:04.703Z,11.15
2023-04-27T05:27:32.737Z,6.43
2023-04-27T05:29:59.433Z,9.98
2023-04-27T05:32:27.930Z,6.70
2023-04-27T05:34:54.476Z,8.10
2023-04-27T05:37:21.034Z,12.18
2023-04-27T05:39:47.411Z,9.93
2023-04-27T05:42:13.945Z,12.48
2023-04-27T05:44:40.699Z,7.18
2023-04-27T05:47:07.154Z,10.45
2023-04-27T05:49:36.221Z,6.15
2023-04-27T05:52:02.648Z,10.25
2023-04-27T05:54:29.166Z,12.18
2023-04-27T05:56:56.434Z,8.85
2023-04-27T05:59:22.814Z,12.50
2023-04-27T06:01:49.570Z,9.40
2023-04-27T06:04:18.910Z,7.97
2023-04-27T06:06:45.651Z,9.07
2023-04-27T06:09:12.330Z,8.25
2023-04-27T06:11:38.906Z,13.65
2023-04-27T06:14:05.540Z,11.90
2023-04-27T06:16:33.068Z,8.77
2023-04-27T06:18:59.846Z,7.35
2023-04-27T06:21:26.620Z,4.97
2023-04-27T06:23:53.164Z,5.25
2023-04-27T06:26:19.596Z,5.93
2023-04-27T06:28:47.052Z,6.13
2023-04-27T06:31:13.927Z,8.30
2023-04-27T06:33:40.480Z,5.65
2023-04-27T06:36:07.143Z,5.72
2023-04-27T06:38:33.707Z,8.80
2023-04-27T06:41:00.205Z,7.22
2023-04-27T06:43:26.841Z,8.73
2023-04-27T06:45:53.592Z,6.72
2023-04-27T06:48:20.336Z,5.65
2023-04-27T06:50:46.902Z,7.18
2023-04-27T06:53:13.720Z,7.53
2023-04-27T06:55:42.432Z,5.78
2023-04-27T06:58:10.634Z,10.10
2023-04-27T07:00:37.267Z,5.35
2023-04-27T07:03:04.460Z,7.70
2023-04-27T07:05:31.269Z,7.97
2023-04-27T07:07:58.281Z,3.97
2023-04-27T07:10:25.638Z,8.70
2023-04-27T07:12:52.168Z,5.22
2023-04-27T07:15:18.898Z,4.55
2023-04-27T07:17:45.499Z,3.22
2023-04-27T07:20:14.334Z,4.28
2023-04-27T07:22:41.102Z,6.35
2023-04-27T07:25:07.906Z,6.20
2023-04-27T07:27:35.966Z,3.58
2023-04-27T07:30:02.959Z,4.80
2023-04-27T07:32:30.185Z,8.40
2023-04-27T07:34:58.286Z,5.32
2023-04-27T07:37:27.056Z,3.90
2023-04-27T07:39:53.712Z,6.85
2023-04-27T07:42:22.316Z,7.97
2023-04-27T07:44:50.508Z,6.07
2023-04-27T07:47:18.884Z,3.90
2023-04-27T07:49:48.292Z,4.00
2023-04-27T07:52:15.913Z,5.97
2023-04-27T07:54:42.489Z,10.68
2023-04-27T07:57:10.542Z,4.85
2023-04-27T07:59:37.115Z,5.07
2023-04-27T08:02:18.361Z,3.80
2023-04-27T08:04:47.129Z,3.97
2023-04-27T08:07:15.096Z,6.00
2023-04-27T08:09:41.590Z,4.25
2023-04-27T08:12:08.369Z,4.07
2023-04-27T08:14:35.672Z,5.90
2023-04-27T08:17:02.498Z,6.35
2023-04-27T08:19:29.176Z,7.03
2023-04-27T08:21:56.270Z,7.40
2023-04-27T08:24:22.975Z,4.78
2023-04-27T08:26:49.594Z,5.30
2023-04-27T08:29:27.132Z,7.28
2023-04-27T08:31:56.677Z,6.43
2023-04-27T08:34:23.749Z,4.57
2023-04-27T08:36:50.517Z,7.22
2023-04-27T08:39:18.605Z,5.07
2023-04-27T08:41:45.412Z,6.93
2023-04-27T08:44:12.293Z,4.90
2023-04-27T08:46:39.168Z,6.35
2023-04-27T08:49:07.450Z,3.72
2023-04-27T08:51:34.808Z,7.47
2023-04-27T08:54:01.605Z,5.28
2023-04-27T08:56:29.068Z,6.40
2023-04-27T08:58:56.514Z,7.40
2023-04-27T09:01:23.911Z,4.72
2023-04-27T09:03:56.356Z,6.10
2023-04-27T09:06:49.846Z,4.68
2023-04-27T09:09:23.870Z,5.00
2023-04-27T09:11:51.962Z,6.35
2023-04-27T09:14:19.525Z,8.10
2023-04-27T09:16:46.716Z,5.50
2023-04-27T09:19:23.346Z,4.85
2023-04-27T09:21:51.889Z,6.80
2023-04-27T09:24:18.622Z,6.35
2023-04-27T09:26:49.858Z,3.42
2023-04-27T09:29:16.328Z,4.40
2023-04-27T09:31:42.951Z,4.32
2023-04-27T09:34:09.760Z,7.65
2023-04-27T09:36:37.065Z,10.68
2023-04-27T09:39:06.954Z,5.10
2023-04-27T09:41:33.449Z,11.80
2023-04-27T09:44:00.218Z,9.90
2023-04-27T09:46:28.537Z,7.65
2023-04-27T09:48:56.414Z,7.10
2023-04-27T09:51:22.972Z,9.52
2023-04-27T09:53:52.028Z,8.98
2023-04-27T09:56:28.234Z,8.23
2023-04-27T09:59:02.607Z,7.43
2023-04-27T10:01:32.321Z,7.30
2023-04-27T10:04:05.022Z,7.43
2023-04-27T10:06:32.444Z,5.60
2023-04-27T10:08:59.313Z,8.20
2023-04-27T10:11:42.423Z,8.70
2023-04-27T10:14:11.508Z,9.25
2023-04-27T10:16:48.251Z,6.97
2023-04-27T10:19:15.303Z,6.57
2023-04-27T10:21:53.232Z,6.38
2023-04-27T10:24:19.579Z,8.02
2023-04-27T10:26:46.859Z,9.65
2023-04-27T10:29:16.365Z,8.98
2023-04-27T10:31:43.840Z,7.57
2023-04-27T10:34:10.830Z,8.68
2023-04-27T10:36:38.320Z,6.72
2023-04-27T10:39:18.591Z,7.68
2023-04-27T10:41:56.285Z,5.95
2023-04-27T10:44:28.427Z,5.18
2023-04-27T10:46:57.175Z,7.75
2023-04-27T10:49:23.925Z,5.57
2023-04-27T10:51:51.261Z,5.78
2023-04-27T10:54:18.615Z,7.03
2023-04-27T10:56:45.624Z,7.22
2023-04-27T10:59:12.848Z,9.88
2023-04-27T11:01:40.056Z,10.82
2023-04-27T11:04:06.790Z,6.75
2023-04-27T11:06:42.111Z,9.65
2023-04-27T11:09:10.570Z,8.68
2023-04-27T11:11:37.492Z,12.68
2023-04-27T11:14:04.445Z,7.88
2023-04-27T11:16:32.800Z,9.55
2023-04-27T11:19:07.171Z,9.35
2023-04-27T11:24:06.588Z,6.93
2023-04-27T11:26:34.361Z,6.70
2023-04-27T11:29:05.539Z,9.60
2023-04-27T11:31:40.289Z,6.28
2023-04-27T11:34:08.273Z,5.97
2023-04-27T11:36:34.904Z,10.77
2023-04-27T11:39:01.723Z,5.93
2023-04-27T11:41:37.473Z,6.40
2023-04-27T11:44:07.891Z,12.80
2023-04-27T11:46:36.550Z,8.15
2023-04-27T11:49:05.189Z,5.18
2023-04-27T11:51:38.273Z,7.47
2023-04-27T11:54:06.666Z,6.30
2023-04-27T11:56:37.070Z,6.85
2023-04-27T11:59:04.801Z,8.18
2023-04-27T12:01:38.343Z,6.03
2023-04-27T12:04:05.356Z,6.43
2023-04-27T12:06:33.895Z,7.45
2023-04-27T12:09:01.712Z,8.15
2023-04-27T12:11:28.415Z,5.93
2023-04-27T12:13:55.522Z,9.38
2023-04-27T12:16:22.705Z,8.40
2023-04-27T12:18:54.784Z,6.07
2023-04-27T12:21:21.580Z,7.22
2023-04-27T12:23:48.010Z,7.85
2023-04-27T12:26:15.447Z,10.02
2023-04-27T12:28:44.389Z,5.72
2023-04-27T12:31:15.173Z,7.95
2023-04-27T12:33:42.062Z,7.72
2023-04-27T12:36:09.030Z,5.75
2023-04-27T12:38:35.985Z,8.38
2023-04-27T12:41:02.591Z,8.63
2023-04-27T12:43:29.206Z,7.30
2023-04-27T12:45:56.547Z,6.05
2023-04-27T12:48:23.606Z,8.05
2023-04-27T12:50:50.191Z,5.93
2023-04-27T12:53:16.870Z,4.68
2023-04-27T12:55:43.582Z,8.32
2023-04-27T12:58:12.366Z,8.55
2023-04-27T13:00:39.536Z,7.63
2023-04-27T13:03:06.837Z,10.15
2023-04-27T13:05:35.079Z,6.43
2023-04-27T13:08:01.587Z,6.82
2023-04-27T13:10:28.678Z,7.03
2023-04-27T13:12:55.399Z,7.03
2023-04-27T13:15:22.832Z,9.90
2023-04-27T13:17:49.629Z,7.32
2023-04-27T13:20:16.474Z,9.45
2023-04-27T13:22:44.090Z,7.25
2023-04-27T13:25:10.551Z,5.93
2023-04-27T13:27:37.193Z,6.65
2023-04-27T13:30:05.434Z,7.70
2023-04-27T13:32:32.264Z,8.00
2023-04-27T13:34:59.637Z,8.85
2023-04-27T13:37:26.416Z,7.72
2023-04-27T13:39:52.879Z,6.15
2023-04-27T13:42:19.409Z,7.03
2023-04-27T13:44:45.938Z,6.93
2023-04-27T13:47:12.716Z,10.52
2023-04-27T13:49:39.797Z,6.20
2023-04-27T13:52:06.490Z,7.07
2023-04-27T13:54:32.817Z,7.43
2023-04-27T13:56:59.449Z,8.10
2023-04-27T13:59:26.237Z,8.18
2023-04-27T14:01:53.109Z,6.63
2023-04-27T14:04:19.838Z,9.43
2023-04-27T14:06:46.704Z,6.85
2023-04-27T14:09:13.486Z,6.07
2023-04-27T14:11:54.968Z,6.85
2023-04-27T14:14:22.743Z,5.68
2023-04-27T14:16:51.152Z,9.23
2023-04-27T14:19:18.701Z,5.47
2023-04-27T14:21:45.257Z,10.38
2023-04-27T14:24:11.863Z,11.52
2023-04-27T14:26:38.570Z,7.72
2023-04-27T14:29:05.120Z,6.35
2023-04-27T14:31:31.810Z,8.50
2023-04-27T14:33:58.577Z,5.18
2023-04-27T14:36:25.268Z,6.95
2023-04-27T14:38:51.990Z,7.40
2023-04-27T14:41:18.831Z,6.03
2023-04-27T14:43:47.301Z,6.57
2023-04-27T14:46:20.981Z,10.15
2023-04-27T14:48:48.152Z,7.65
2023-04-27T14:51:15.188Z,7.55
2023-04-27T14:53:44.193Z,7.63
2023-04-27T14:56:11.761Z,10.73
2023-04-27T14:58:39.610Z,8.85
2023-04-27T15:01:06.975Z,6.57
2023-04-27T15:03:33.901Z,11.52
2023-04-27T15:06:01.423Z,9.93
2023-04-27T15:08:28.371Z,8.60
2023-04-27T15:10:57.739Z,7.95
2023-04-27T15:13:26.136Z,7.85
2023-04-27T15:15:56.463Z,7.30
2023-04-27T15:18:23.180Z,6.60
2023-04-27T15:20:53.766Z,8.82
2023-04-27T15:23:20.820Z,8.60
2023-04-27T15:25:48.569Z,6.78
2023-04-27T15:28:16.427Z,7.60
2023-04-27T15:30:43.514Z,5.32
2023-04-27T15:33:10.779Z,7.00
2023-04-27T15:35:39.345Z,10.18
2023-04-27T15:38:06.887Z,5.85
2023-04-27T15:40:34.703Z,8.55
2023-04-27T15:43:01.181Z,10.38
2023-04-27T15:45:28.510Z,9.25
2023-04-27T15:47:55.141Z,6.20
2023-04-27T15:50:21.924Z,9.00
2023-04-27T15:52:48.598Z,7.50
2023-04-27T15:55:15.248Z,8.32
2023-04-27T15:57:41.910Z,8.63
2023-04-27T16:00:12.002Z,8.30
2023-04-27T16:02:38.888Z,8.70
2023-04-27T16:05:06.508Z,7.50
2023-04-27T16:07:33.304Z,6.63
2023-04-27T16:10:00.474Z,7.60
2023-04-27T16:12:27.020Z,10.70
2023-04-27T16:14:57.337Z,6.30
2023-04-27T16:17:24.595Z,6.57
2023-04-27T16:19:51.497Z,10.98
2023-04-27T16:22:18.003Z,5.15
2023-04-27T16:24:44.865Z,7.75
2023-04-27T16:27:11.767Z,6.68
2023-04-27T16:29:38.295Z,9.75
2023-04-27T16:32:05.253Z,7.63
2023-04-27T16:34:32.381Z,6.55
2023-04-27T16:37:01.056Z,5.13
2023-04-27T16:39:27.465Z,9.68
2023-04-27T16:41:54.237Z,7.78
2023-04-27T16:44:20.743Z,9.38
2023-04-27T16:46:47.469Z,7.07
2023-04-27T16:49:14.352Z,7.38
2023-04-27T16:51:40.888Z,6.47
2023-04-27T16:54:08.423Z,7.90
2023-04-27T16:56:35.721Z,6.78
2023-04-27T16:59:02.751Z,6.30
2023-04-27T17:01:30.307Z,7.53
2023-04-27T17:03:57.784Z,7.72
2023-04-27T17:06:29.241Z,6.72
2023-04-27T17:08:59.347Z,6.38
2023-04-27T17:11:28.878Z,7.43
2023-04-27T17:13:55.746Z,4.95
2023-04-27T17:16:22.479Z,6.88
2023-04-27T17:18:49.210Z,7.32
2023-04-27T17:21:17.283Z,6.05
2023-04-27T17:23:47.599Z,6.32
2023-04-27T17:26:19.699Z,7.65
2023-04-27T17:28:46.654Z,9.25
2023-04-27T17:31:13.405Z,7.10
2023-04-27T17:33:40.293Z,4.50
2023-04-27T17:36:07.326Z,7.13
2023-04-27T17:38:33.873Z,6.05
2023-04-27T17:41:00.468Z,5.60
2023-04-27T17:43:27.154Z,10.68
2023-04-27T17:45:54.268Z,6.28
2023-04-27T17:48:21.833Z,7.07
2023-04-27T17:50:48.769Z,4.05
2023-04-27T17:53:15.338Z,6.15
2023-04-27T17:55:45.436Z,7.50
2023-04-27T17:58:11.860Z,5.25
2023-04-27T18:00:39.167Z,5.53
2023-04-27T18:03:05.994Z,6.15
2023-04-27T18:05:32.996Z,7.80
2023-04-27T18:07:59.760Z,5.50
2023-04-27T18:10:26.295Z,5.65
2023-04-27T18:12:52.873Z,6.15
2023-04-27T18:15:19.835Z,7.93
2023-04-27T18:17:46.916Z,4.57
2023-04-27T18:20:15.832Z,7.85
2023-04-27T18:22:42.396Z,5.03
2023-04-27T18:25:09.365Z,4.50
2023-04-27T18:27:37.467Z,6.03
2023-04-27T18:30:08.422Z,6.35
2023-04-27T18:32:35.370Z,6.30
2023-04-27T18:35:02.924Z,12.50
2023-04-27T18:37:29.939Z,29.08
2023-04-27T18:39:56.496Z,46.42
2023-04-27T18:42:24.235Z,36.05
2023-04-27T18:44:52.172Z,21.02
2023-04-27T18:47:18.507Z,9.25
2023-04-27T18:49:45.059Z,5.80
2023-04-27T18:52:16.288Z,7.85
2023-04-27T18:54:43.183Z,6.78
2023-04-27T18:57:09.589Z,7.03
2023-04-27T18:59:41.564Z,4.65
2023-04-27T19:02:09.199Z,6.07
2023-04-27T19:04:36.690Z,5.50
2023-04-27T19:07:03.384Z,7.07
2023-04-27T19:09:30.011Z,6.10
2023-04-27T19:12:02.892Z,10.35
2023-04-27T19:14:30.907Z,8.18
2023-04-27T19:16:57.612Z,8.18
2023-04-27T19:19:24.910Z,10.85
2023-04-27T19:21:51.296Z,5.55
2023-04-27T19:24:17.759Z,6.45
2023-04-27T19:26:44.332Z,6.50
2023-04-27T19:29:11.050Z,6.78
2023-04-27T19:31:37.567Z,5.50
2023-04-27T19:34:04.629Z,6.28
2023-04-27T19:36:37.090Z,5.95
2023-04-27T19:39:03.891Z,4.75
2023-04-27T19:41:30.322Z,7.13
2023-04-27T19:44:00.064Z,6.60
2023-04-27T19:46:26.661Z,9.43
2023-04-27T19:48:53.501Z,4.80
2023-04-27T19:51:20.411Z,8.02
2023-04-27T19:53:47.005Z,9.77
2023-04-27T19:56:13.714Z,6.32
2023-04-27T19:58:41.069Z,7.15
2023-04-27T20:01:08.029Z,5.30
2023-04-27T20:03:36.050Z,8.60
2023-04-27T20:06:03.018Z,16.15
2023-04-27T20:08:29.505Z,27.92
2023-04-27T20:10:56.665Z,18.75
2023-04-27T20:13:23.889Z,9.57
2023-04-27T20:15:51.888Z,9.85
2023-04-27T20:18:19.477Z,6.65
2023-04-27T20:20:46.020Z,8.20
2023-04-27T20:23:12.719Z,11.63
2023-04-27T20:25:39.150Z,8.98
2023-04-27T20:28:07.266Z,8.35
2023-04-27T20:30:34.023Z,10.25
2023-04-27T20:33:01.532Z,7.53
2023-04-27T20:35:28.259Z,8.07
2023-04-27T20:37:54.775Z,8.25
2023-04-27T20:40:21.853Z,9.77
2023-04-27T20:42:49.450Z,7.65
2023-04-27T20:45:17.411Z,11.38
2023-04-27T20:47:43.839Z,11.73
2023-04-27T20:50:10.742Z,8.52
2023-04-27T20:52:37.446Z,6.38
2023-04-27T20:55:04.664Z,7.65
2023-04-27T20:57:31.670Z,8.73
2023-04-27T20:59:58.331Z,10.18
2023-04-27T21:02:24.973Z,7.15
2023-04-27T21:04:51.944Z,8.50
2023-04-27T21:07:18.725Z,9.25
2023-04-27T21:09:45.095Z,5.40
2023-04-27T21:12:14.408Z,6.95
2023-04-27T21:14:40.971Z,7.07
2023-04-27T21:17:07.657Z,6.05
2023-04-27T21:19:34.147Z,8.00
2023-04-27T21:22:00.765Z,7.30
2023-04-27T21:24:27.110Z,6.13
2023-04-27T21:26:53.690Z,5.75
2023-04-27T21:29:20.206Z,6.60
2023-04-27T21:31:46.753Z,7.78
2023-04-27T21:34:13.834Z,6.85
2023-04-27T21:36:40.606Z,7.28
2023-04-27T21:39:07.031Z,9.07
2023-04-27T21:41:37.632Z,7.35
2023-04-27T21:44:04.334Z,8.43
2023-04-27T21:46:30.865Z,10.02
2023-04-27T21:48:57.496Z,8.65
2023-04-27T21:51:23.826Z,6.88
2023-04-27T21:53:50.385Z,10.30
2023-04-27T21:56:16.955Z,8.80
2023-04-27T21:58:43.675Z,5.60
2023-04-27T22:01:11.415Z,5.88
2023-04-27T22:03:38.343Z,7.07
2023-04-27T22:06:05.876Z,7.53
2023-04-27T22:08:32.448Z,7.50
2023-04-27T22:10:59.274Z,5.80
2023-04-27T22:13:25.863Z,6.72
2023-04-27T22:15:52.443Z,4.75
2023-04-27T22:18:20.373Z,7.25
2023-04-27T22:20:47.383Z,7.68
2023-04-27T22:23:13.780Z,7.57
2023-04-27T22:25:43.048Z,5.18
2023-04-27T22:28:10.017Z,8.50
2023-04-27T22:30:36.698Z,7.00
2023-04-27T22:33:03.216Z,8.15
2023-04-27T22:35:29.820Z,7.78
2023-04-27T22:37:56.232Z,7.72
2023-04-27T22:40:22.798Z,6.63
2023-04-27T22:42:49.196Z,7.57
2023-04-27T22:45:15.865Z,5.97
2023-04-27T22:47:45.669Z,6.30
2023-04-27T22:50:12.514Z,6.18
2023-04-27T22:52:42.552Z,6.13
2023-04-27T22:55:09.404Z,5.93
2023-04-27T22:57:36.040Z,5.85
2023-04-27T23:00:05.178Z,8.32
2023-04-27T23:02:31.973Z,5.05
2023-04-27T23:04:58.904Z,9.43
2023-04-27T23:07:25.336Z,6.75
2023-04-27T23:09:52.737Z,7.85
2023-04-27T23:12:19.519Z,8.30
2023-04-27T23:14:46.189Z,8.05
2023-04-27T23:17:13.249Z,8.85
2023-04-27T23:19:40.595Z,12.50
2023-04-27T23:22:07.211Z,17.73
2023-04-27T23:24:33.711Z,10.32
2023-04-27T23:27:00.233Z,11.65
2023-04-27T23:29:26.783Z,8.52
2023-04-27T23:31:53.438Z,8.32
2023-04-27T23:34:19.957Z,7.45
2023-04-27T23:36:46.681Z,13.20
2023-04-27T23:39:13.052Z,6.97
2023-04-27T23:41:39.611Z,6.72
2023-04-27T23:44:06.397Z,5.35
2023-04-27T23:46:33.719Z,6.30
2023-04-27T23:49:00.310Z,7.75
2023-04-27T23:51:27.330Z,8.23
2023-04-27T23:53:53.826Z,6.93
2023-04-27T23:56:21.339Z,6.18
2023-04-27T23:58:47.880Z,7.75
